Time;durP1;ratioP1;P1;durP2;ratioP2;P2;SDS_P1;SDS_P2;PMS_P1;PMS_P2;Temp;Humidity;BMP_temperature;BMP_pressure;BME280_temperature;BME280_humidity;BME280_pressure;Samples;Min_cycle;Max_cycle;Signal;HPM_P1;HPM_P2
2023/07/23 00:01:49;;;;;;;22.02;8.10;;;;;;;16.15;100.00;100629.13;4985811;28;20090;-72
2023/07/23 00:04:34;;;;;;;14.18;9.13;;;;;;;16.05;100.00;100633.88;5003194;28;20053;-71
2023/07/23 00:07:20;;;;;;;15.30;8.60;;;;;;;16.04;100.00;100625.78;5001166;28;20121;-71
2023/07/23 00:10:07;;;;;;;14.68;8.02;;;;;;;16.03;100.00;100616.59;4999458;28;20038;-72
2023/07/23 00:12:53;;;;;;;14.82;8.20;;;;;;;15.97;100.00;100612.59;4992546;28;20049;-73
2023/07/23 00:15:39;;;;;;;17.98;8.82;;;;;;;15.88;100.00;100604.44;5005972;28;20124;-72
2023/07/23 00:18:25;;;;;;;13.85;8.55;;;;;;;15.96;100.00;100599.81;4997467;28;20042;-73
2023/07/23 00:21:10;;;;;;;10.73;7.78;;;;;;;15.96;100.00;100599.81;5002975;28;20037;-71
2023/07/23 00:23:56;;;;;;;12.95;8.75;;;;;;;15.96;100.00;100585.16;4990184;28;20038;-71
2023/07/23 00:26:42;;;;;;;12.65;8.18;;;;;;;15.97;100.00;100586.88;4999263;28;20048;-72
2023/07/23 00:29:28;;;;;;;18.05;8.73;;;;;;;16.01;100.00;100577.25;5003407;28;20456;-72
2023/07/23 00:32:13;;;;;;;14.93;8.60;;;;;;;16.01;100.00;100576.38;4996019;28;20115;-73
2023/07/23 00:34:59;;;;;;;11.25;8.43;;;;;;;15.99;100.00;100571.88;4993311;28;20046;-71
2023/07/23 00:37:45;;;;;;;15.68;9.10;;;;;;;16.03;100.00;100563.28;5003525;28;20045;-71
2023/07/23 00:40:31;;;;;;;17.58;9.13;;;;;;;15.99;100.00;100558.06;5003924;28;20195;-71
2023/07/23 00:43:16;;;;;;;21.70;9.65;;;;;;;16.00;100.00;100558.94;4990401;28;20120;-72
2023/07/23 00:46:02;;;;;;;13.25;8.80;;;;;;;15.98;100.00;100561.00;4983933;28;20042;-71
2023/07/23 00:48:48;;;;;;;15.27;8.13;;;;;;;16.02;100.00;100547.72;5004843;28;20049;-72
2023/07/23 00:51:35;;;;;;;17.65;9.27;;;;;;;15.98;100.00;100545.28;4994259;28;20555;-71
2023/07/23 00:54:21;;;;;;;14.68;9.68;;;;;;;16.01;100.00;100533.06;5003576;28;20490;-71
2023/07/23 00:57:07;;;;;;;14.65;9.43;;;;;;;15.99;100.00;100532.34;4994756;28;20042;-73
2023/07/23 00:59:56;;;;;;;16.42;8.95;;;;;;;16.05;100.00;100533.59;5006169;28;20408;-70
2023/07/23 01:02:42;;;;;;;18.42;9.25;;;;;;;16.01;100.00;100526.69;5007326;28;20038;-72
2023/07/23 01:05:29;;;;;;;13.93;9.10;;;;;;;15.93;100.00;100516.44;5009416;28;20026;-71
2023/07/23 01:08:15;;;;;;;20.95;10.52;;;;;;;15.81;100.00;100515.88;4991148;28;20072;-71
2023/07/23 01:11:02;;;;;;;16.23;9.18;;;;;;;15.91;100.00;100505.56;5005696;28;20046;-71
2023/07/23 01:13:51;;;;;;;18.60;10.18;;;;;;;15.91;100.00;100505.56;5002328;28;20038;-72
2023/07/23 01:16:37;;;;;;;16.30;10.05;;;;;;;15.96;100.00;100505.06;5003782;28;20117;-71
2023/07/23 01:19:26;;;;;;;17.88;8.48;;;;;;;15.87;100.00;100495.00;5010625;28;20041;-71
2023/07/23 01:22:11;;;;;;;12.63;8.63;;;;;;;15.84;100.00;100493.47;4993915;28;20038;-72
2023/07/23 01:24:57;;;;;;;16.00;8.63;;;;;;;15.80;100.00;100492.03;4997824;28;20050;-71
2023/07/23 01:27:43;;;;;;;16.23;8.05;;;;;;;15.81;100.00;100479.97;5005077;28;20038;-70
2023/07/23 01:30:29;;;;;;;14.05;8.55;;;;;;;15.86;100.00;100477.59;4995119;28;20053;-70
2023/07/23 01:33:15;;;;;;;14.48;8.95;;;;;;;15.81;100.00;100468.94;4990915;28;20034;-70
2023/07/23 01:36:01;;;;;;;11.90;7.97;;;;;;;15.84;100.00;100465.84;5011263;28;20046;-70
2023/07/23 01:38:48;;;;;;;15.00;8.80;;;;;;;15.80;100.00;100468.06;5006007;28;20042;-73
2023/07/23 01:41:34;;;;;;;13.48;8.38;;;;;;;15.85;100.00;100451.00;5008494;28;20053;-71
2023/07/23 01:44:19;;;;;;;13.70;7.63;;;;;;;15.86;100.00;100451.88;5009341;28;20026;-71
2023/07/23 01:47:05;;;;;;;15.00;8.43;;;;;;;15.81;100.00;100455.13;5008937;28;20104;-71
2023/07/23 01:49:51;;;;;;;11.93;7.55;;;;;;;15.80;100.00;100445.97;5007699;28;20034;-71
2023/07/23 01:52:37;;;;;;;11.85;8.30;;;;;;;15.85;100.00;100445.47;4989267;28;20133;-71
2023/07/23 01:55:22;;;;;;;13.27;8.15;;;;;;;15.86;100.00;100438.06;5004851;28;20050;-71
2023/07/23 01:58:08;;;;;;;14.68;7.43;;;;;;;15.82;100.00;100434.75;4982826;28;20057;-71
2023/07/23 02:00:58;;;;;;;14.43;7.88;;;;;;;15.92;100.00;100432.75;5002242;28;20062;-71
2023/07/23 02:03:44;;;;;;;13.40;7.53;;;;;;;15.94;100.00;100432.59;5004015;28;20042;-71
2023/07/23 02:06:29;;;;;;;19.25;7.85;;;;;;;15.95;100.00;100417.72;5006705;28;20441;-71
2023/07/23 02:09:15;;;;;;;15.25;7.93;;;;;;;15.96;100.00;100412.03;5006159;28;20122;-71
2023/07/23 02:12:02;;;;;;;15.32;7.38;;;;;;;15.96;100.00;100405.66;5004237;28;20038;-71
2023/07/23 02:14:48;;;;;;;17.52;7.28;;;;;;;16.02;100.00;100409.63;4999951;28;20516;-71
2023/07/23 02:17:33;;;;;;;12.70;7.00;;;;;;;15.99;100.00;100394.28;5007449;28;20528;-71
2023/07/23 02:20:19;;;;;;;12.98;7.28;;;;;;;15.96;100.00;100392.72;5007213;28;20041;-71
2023/07/23 02:23:05;;;;;;;13.85;7.72;;;;;;;15.96;100.00;100400.13;5004674;28;20072;-71
2023/07/23 02:25:50;;;;;;;16.30;6.53;;;;;;;16.02;100.00;100391.19;4986433;28;20077;-71
2023/07/23 02:28:40;;;;;;;11.05;7.68;;;;;;;15.99;100.00;100384.09;5006584;28;20141;-72
2023/07/23 02:31:26;;;;;;;12.25;7.28;;;;;;;16.03;100.00;100381.00;5002187;28;20038;-71
2023/07/23 02:34:12;;;;;;;19.70;7.75;;;;;;;15.97;100.00;100379.75;5003254;28;20038;-71
2023/07/23 02:36:57;;;;;;;13.20;7.65;;;;;;;16.13;100.00;100371.53;5000886;28;20056;-71
2023/07/23 02:39:43;;;;;;;19.58;7.50;;;;;;;16.15;100.00;100374.09;4992708;28;20115;-70
2023/07/23 02:42:29;;;;;;;14.35;7.30;;;;;;;16.13;100.00;100371.53;5001442;28;20057;-71
2023/07/23 02:45:15;;;;;;;16.58;7.57;;;;;;;16.17;100.00;100372.91;4999517;28;20027;-71
2023/07/23 02:48:00;;;;;;;13.38;7.40;;;;;;;16.21;100.00;100375.34;4997343;28;20046;-71
2023/07/23 02:50:46;;;;;;;15.23;7.40;;;;;;;16.16;100.00;100370.31;5004307;28;20084;-71
2023/07/23 02:53:32;;;;;;;15.45;7.38;;;;;;;16.20;100.00;100363.44;4965696;28;1180622;-71
2023/07/23 02:56:17;;;;;;;14.68;7.03;;;;;;;16.24;100.00;100375.00;5004282;28;20037;-72
2023/07/23 02:59:03;;;;;;;15.52;7.45;;;;;;;16.27;100.00;100367.22;5007100;28;20651;-71
2023/07/23 03:01:49;;;;;;;14.73;7.03;;;;;;;16.28;100.00;100355.16;5005334;28;20037;-71
2023/07/23 03:04:35;;;;;;;11.73;6.75;;;;;;;16.37;100.00;100361.53;4991782;28;20391;-71
2023/07/23 03:07:20;;;;;;;14.23;7.03;;;;;;;16.33;100.00;100361.03;4999093;28;20482;-71
2023/07/23 03:10:06;;;;;;;13.55;6.57;;;;;;;16.28;100.00;100357.91;4992046;28;20092;-72
2023/07/23 03:12:52;;;;;;;13.18;6.75;;;;;;;16.27;100.00;100349.81;4980486;28;20263;-71
2023/07/23 03:15:38;;;;;;;10.77;6.47;;;;;;;16.33;100.00;100347.22;5000073;28;20056;-71
2023/07/23 03:18:23;;;;;;;13.60;6.47;;;;;;;16.33;100.00;100344.44;5009573;28;20440;-71
2023/07/23 03:21:09;;;;;;;10.52;5.88;;;;;;;16.31;100.00;100351.16;4995048;28;20054;-71
2023/07/23 03:23:55;;;;;;;14.07;7.05;;;;;;;16.35;100.00;100347.91;5000376;28;20065;-70
2023/07/23 03:26:41;;;;;;;8.52;6.07;;;;;;;16.40;100.00;100346.50;4992917;28;20491;-70
2023/07/23 03:29:26;;;;;;;9.38;5.88;;;;;;;16.44;100.00;100345.13;5009886;28;20041;-72
2023/07/23 03:32:12;;;;;;;16.15;6.40;;;;;;;16.46;100.00;100343.06;4999671;28;20042;-71
2023/07/23 03:34:58;;;;;;;16.65;6.20;;;;;;;16.49;100.00;100346.34;4979397;28;20386;-71
2023/07/23 03:37:43;;;;;;;12.35;6.20;;;;;;;16.42;100.00;100338.94;5009839;28;20448;-71
2023/07/23 03:40:29;;;;;;;13.48;5.65;;;;;;;16.45;100.00;100344.97;5006810;28;20424;-71
2023/07/23 03:43:15;;;;;;;13.88;5.80;;;;;;;16.53;100.00;100341.34;5014484;28;20041;-71
2023/07/23 03:46:00;;;;;;;11.07;6.20;;;;;;;16.55;100.00;100344.78;5000605;28;20042;-71
2023/07/23 03:48:47;;;;;;;8.20;5.32;;;;;;;16.54;100.00;100349.47;4968232;28;20057;-71
2023/07/23 03:51:33;;;;;;;14.32;5.65;;;;;;;16.61;100.00;100343.22;5009960;28;20444;-72
2023/07/23 03:54:19;;;;;;;12.27;5.40;;;;;;;16.57;100.00;100334.41;5010281;28;20058;-71
2023/07/23 03:57:05;;;;;;;9.15;4.85;;;;;;;16.57;100.00;100333.56;5007662;28;20386;-70
2023/07/23 03:59:51;;;;;;;13.30;5.10;;;;;;;16.61;100.00;100334.94;5005523;28;20066;-71
2023/07/23 04:02:36;;;;;;;14.05;4.75;;;;;;;16.59;100.00;100337.88;5006035;28;20041;-71
2023/07/23 04:05:22;;;;;;;11.38;4.97;;;;;;;16.65;100.00;100336.31;5002330;28;20286;-71
2023/07/23 04:08:08;;;;;;;13.18;4.60;;;;;;;16.62;100.00;100339.44;5002523;28;20383;-71
2023/07/23 04:10:55;;;;;;;8.90;4.28;;;;;;;16.60;100.00;100339.59;4984014;28;20096;-72
2023/07/23 04:13:41;;;;;;;15.57;4.70;;;;;;;16.65;100.00;100339.94;5000761;28;20077;-71
2023/07/23 04:16:27;;;;;;;9.25;4.88;;;;;;;16.66;100.00;100336.16;5005592;28;20045;-71
2023/07/23 04:19:13;;;;;;;10.15;4.57;;;;;;;16.69;100.00;100344.09;5001290;28;20073;-71
2023/07/23 04:21:58;;;;;;;9.63;3.95;;;;;;;16.68;100.00;100334.06;5002820;28;20584;-71
2023/07/23 04:24:44;;;;;;;9.35;3.80;;;;;;;16.72;100.00;100335.47;4994265;28;20046;-71
2023/07/23 04:27:30;;;;;;;8.65;4.30;;;;;;;16.69;100.00;100332.16;5003033;28;20034;-71
2023/07/23 04:30:15;;;;;;;6.82;3.50;;;;;;;16.75;100.00;100334.22;4981301;28;20045;-71
2023/07/23 04:33:01;;;;;;;7.88;3.90;;;;;;;16.82;100.00;100342.69;4990567;28;20035;-71
2023/07/23 04:35:47;;;;;;;7.28;3.72;;;;;;;16.82;100.00;100339.91;5006742;28;20038;-73
2023/07/23 04:38:34;;;;;;;6.47;3.45;;;;;;;16.93;100.00;100334.06;5007030;28;20209;-71
2023/07/23 04:41:19;;;;;;;7.40;3.25;;;;;;;17.01;100.00;100344.25;5006601;28;20045;-71
2023/07/23 04:44:05;;;;;;;5.57;3.45;;;;;;;17.02;100.00;100346.84;5012642;28;20555;-71
2023/07/23 04:46:51;;;;;;;32.38;3.70;;;;;;;16.95;100.00;100342.19;5000026;28;20034;-71
2023/07/23 04:49:37;;;;;;;6.88;3.30;;;;;;;17.03;100.00;100343.03;5020596;28;20043;-70
2023/07/23 04:52:22;;;;;;;5.70;2.88;;;;;;;17.06;100.00;100341.81;5007619;28;20125;-70
2023/07/23 04:55:08;;;;;;;7.40;3.47;;;;;;;17.08;100.00;100342.50;4984930;28;20046;-70
2023/07/23 04:57:54;;;;;;;11.88;3.00;;;;;;;17.13;100.00;100339.22;4997979;28;20034;-70
2023/07/23 05:00:40;;;;;;;6.50;3.38;;;;;;;17.16;100.00;100342.47;4977225;28;20140;-71
2023/07/23 05:03:25;;;;;;;8.98;3.22;;;;;;;17.17;100.00;100343.38;4995737;28;20069;-71
2023/07/23 05:06:11;;;;;;;4.90;3.13;;;;;;;17.21;100.00;100340.03;4986089;28;20418;-71
2023/07/23 05:08:57;;;;;;;6.65;3.65;;;;;;;17.21;100.00;100341.94;4994870;28;20049;-70
2023/07/23 05:11:43;;;;;;;5.15;4.10;;;;;;;17.26;100.00;100342.28;4989341;28;20085;-70
2023/07/23 05:14:28;;;;;;;5.78;2.83;;;;;;;17.25;100.00;100326.72;5006552;28;20057;-71
2023/07/23 05:17:14;;;;;;;8.00;2.95;;;;;;;17.31;100.00;100333.44;5006294;28;20081;-71
2023/07/23 05:20:00;;;;;;;4.85;3.28;;;;;;;17.39;100.00;100338.94;4994724;28;20034;-72
2023/07/23 05:22:46;;;;;;;8.15;2.95;;;;;;;17.34;100.00;100333.09;5008496;28;20053;-71
2023/07/23 05:25:31;;;;;;;14.13;3.00;;;;;;;17.39;100.00;100330.66;5006974;28;20041;-72
2023/07/23 05:28:17;;;;;;;5.60;2.40;;;;;;;17.36;100.00;100331.00;5003769;28;20072;-75
2023/07/23 05:31:03;;;;;;;6.00;2.75;;;;;;;17.40;100.00;100337.91;4979164;28;20064;-72
2023/07/23 05:33:48;;;;;;;6.07;2.60;;;;;;;17.42;100.00;100331.16;4977179;28;20041;-72
2023/07/23 05:36:34;;;;;;;8.52;4.25;;;;;;;17.38;100.00;100332.56;5001789;28;20092;-71
2023/07/23 05:39:20;;;;;;;4.03;2.78;;;;;;;17.44;100.00;100336.50;5006233;28;20037;-70
2023/07/23 05:42:06;;;;;;;11.45;2.85;;;;;;;17.44;100.00;100337.34;5001085;28;20061;-71
2023/07/23 05:44:51;;;;;;;5.97;3.05;;;;;;;17.39;100.00;100333.41;5006673;28;20386;-71
2023/07/23 05:47:37;;;;;;;4.70;2.60;;;;;;;17.40;100.00;100333.22;4993348;28;20600;-71
2023/07/23 05:50:23;;;;;;;6.70;2.60;;;;;;;17.38;100.00;100332.56;5002507;28;20572;-70
2023/07/23 05:53:10;;;;;;;11.27;4.28;;;;;;;17.34;100.00;100333.94;5007272;28;20054;-71
2023/07/23 05:55:55;;;;;;;5.15;2.90;;;;;;;17.27;100.00;100325.50;5011638;28;20551;-71
2023/07/23 05:58:41;;;;;;;5.13;2.70;;;;;;;17.30;100.00;100332.59;5003553;28;20049;-73
2023/07/23 06:01:27;;;;;;;5.75;2.97;;;;;;;17.32;100.00;100332.41;4975212;28;20046;-71
2023/07/23 06:04:13;;;;;;;6.43;2.38;;;;;;;17.32;100.00;100329.66;4979333;28;20037;-70
2023/07/23 06:06:59;;;;;;;6.68;2.75;;;;;;;17.36;100.00;100329.09;4998966;28;20054;-72
2023/07/23 06:09:45;;;;;;;4.10;2.55;;;;;;;17.29;100.00;100325.31;5008008;28;20065;-71
2023/07/23 06:12:30;;;;;;;6.03;3.15;;;;;;;17.32;100.00;100332.41;5004818;28;20037;-71
2023/07/23 06:15:16;;;;;;;7.07;2.78;;;;;;;17.37;100.00;100333.59;5005448;28;20037;-72
2023/07/23 06:18:02;;;;;;;7.75;2.67;;;;;;;17.33;100.00;100337.78;5004004;28;20061;-71
2023/07/23 06:20:48;;;;;;;8.50;2.28;;;;;;;17.37;100.00;100329.97;4992813;28;20053;-72
2023/07/23 06:23:34;;;;;;;8.60;3.05;;;;;;;17.40;100.00;100340.69;5007623;28;20084;-71
2023/07/23 06:26:21;;;;;;;4.63;2.25;;;;;;;17.36;100.00;100331.00;5005018;28;20026;-70
2023/07/23 06:29:07;;;;;;;12.95;2.95;;;;;;;17.35;100.00;100338.44;4992012;28;20049;-70
2023/07/23 06:31:53;;;;;;;10.93;2.53;;;;;;;17.32;100.00;100340.72;4995417;28;20042;-71
2023/07/23 06:34:39;;;;;;;4.85;2.47;;;;;;;17.26;100.00;100342.28;5001993;28;20030;-71
2023/07/23 06:37:25;;;;;;;6.25;2.60;;;;;;;17.16;100.00;100344.38;4990665;28;20049;-71
2023/07/23 06:40:10;;;;;;;8.32;2.70;;;;;;;16.93;100.00;100347.88;5004074;28;20088;-71
2023/07/23 06:42:56;;;;;;;5.80;2.83;;;;;;;16.96;100.00;100344.78;4988633;28;20409;-72
2023/07/23 06:45:46;;;;;;;5.85;2.80;;;;;;;16.75;100.00;100353.59;4998511;28;20051;-71
2023/07/23 06:48:32;;;;;;;5.90;2.95;;;;;;;16.73;100.00;100358.44;5002478;28;20041;-72
2023/07/23 06:51:18;;;;;;;3.22;2.83;;;;;;;16.76;100.00;100352.56;4998785;28;20045;-71
2023/07/23 06:54:03;;;;;;;6.95;2.83;;;;;;;16.78;100.00;100356.00;4996149;28;20058;-72
2023/07/23 06:56:53;;;;;;;6.28;3.28;;;;;;;16.71;100.00;100358.59;5001643;28;20544;-71
2023/07/23 06:59:39;;;;;;;4.55;3.08;;;;;;;16.83;100.00;100361.03;4994905;28;20042;-71
2023/07/23 07:02:25;;;;;;;7.30;2.88;;;;;;;16.88;100.00;100353.94;5002700;28;20097;-72
2023/07/23 07:05:10;;;;;;;5.88;3.00;;;;;;;16.93;100.00;100364.47;5004602;28;20060;-71
2023/07/23 07:07:56;;;;;;;4.15;2.75;;;;;;;16.96;100.00;100366.06;4974253;28;20065;-71
2023/07/23 07:10:42;;;;;;;6.53;3.05;;;;;;;16.90;100.00;100359.31;5002780;28;20130;-73
2023/07/23 07:13:28;;;;;;;7.13;3.45;;;;;;;16.99;100.00;100362.94;4995419;28;20077;-71
2023/07/23 07:16:16;;;;;;;12.70;3.20;;;;;;;17.02;100.00;100359.78;4984372;28;20042;-71
2023/07/23 07:19:02;;;;;;;6.00;3.22;;;;;;;17.08;100.00;100361.84;5001153;28;20489;-72
2023/07/23 07:21:49;;;;;;;7.88;3.38;;;;;;;17.07;100.00;100357.38;4997010;28;20485;-72
2023/07/23 07:24:35;;;;;;;5.55;2.80;;;;;;;17.09;100.00;100360.84;4995744;28;20041;-72
2023/07/23 07:27:21;;;;;;;7.30;3.75;;;;;;;17.18;100.00;100358.91;4999595;28;20054;-72
2023/07/23 07:30:07;;;;;;;8.60;3.60;;;;;;;17.25;100.00;100363.56;4997096;28;20038;-73
2023/07/23 07:32:53;;;;;;;9.27;3.35;;;;;;;17.22;100.00;100361.13;4999820;28;20638;-72
2023/07/23 07:35:39;;;;;;;6.57;3.20;;;;;;;17.26;100.00;100362.50;4998944;28;20034;-72
2023/07/23 07:38:26;;;;;;;13.75;3.30;;;;;;;17.14;100.00;100366.69;4989942;28;20081;-72
2023/07/23 07:41:12;;;;;;;4.80;2.92;;;;;;;17.07;100.00;100363.78;5000070;28;20046;-72
2023/07/23 07:43:58;;;;;;;6.63;3.25;;;;;;;17.06;100.00;100356.50;4996180;28;20485;-72
2023/07/23 07:46:43;;;;;;;12.63;3.53;;;;;;;17.03;100.00;100362.38;4996956;28;20531;-72
2023/07/23 07:49:29;;;;;;;7.75;3.47;;;;;;;16.88;100.00;100359.47;4990289;28;20497;-71
2023/07/23 07:52:15;;;;;;;6.75;3.15;;;;;;;16.63;100.00;100372.44;4985968;28;20049;-72
2023/07/23 07:55:01;;;;;;;8.68;3.30;;;;;;;16.75;100.00;100363.78;4998687;28;20057;-71
2023/07/23 07:57:47;;;;;;;12.18;3.50;;;;;;;16.78;100.00;100366.22;5001493;28;20133;-72
2023/07/23 08:00:33;;;;;;;7.22;3.30;;;;;;;16.76;100.00;100371.03;4998179;28;20207;-71
2023/07/23 08:03:19;;;;;;;7.70;3.20;;;;;;;16.80;100.00;100370.50;4999959;28;20073;-72
2023/07/23 08:06:05;;;;;;;6.95;3.20;;;;;;;16.59;100.00;100373.81;5006407;28;20115;-71
2023/07/23 08:08:53;;;;;;;6.65;3.05;;;;;;;16.92;100.00;100370.19;5005709;28;20417;-71
2023/07/23 08:11:39;;;;;;;5.80;2.88;;;;;;;17.38;100.00;100371.31;5001998;28;20119;-71
2023/07/23 08:14:26;;;;;;;7.60;3.00;;;;;;;17.30;100.00;100370.44;5000992;28;20038;-71
2023/07/23 08:17:12;;;;;;;6.97;3.10;;;;;;;17.29;100.00;100377.91;5005246;28;20202;-72
2023/07/23 08:19:58;;;;;;;6.93;3.20;;;;;;;17.07;100.00;100372.06;4992958;28;20597;-72
2023/07/23 08:22:43;;;;;;;6.95;3.28;;;;;;;16.98;100.00;100386.94;5007334;28;20130;-72
2023/07/23 08:25:30;;;;;;;7.25;3.53;;;;;;;16.88;100.00;100383.50;5004431;28;20045;-71
2023/07/23 08:28:21;;;;;;;4.88;2.88;;;;;;;16.86;100.00;100378.16;4994027;28;20177;-71
2023/07/23 08:31:07;;;;;;;6.30;3.63;;;;;;;16.98;100.00;100384.19;5004671;28;20121;-71
2023/07/23 08:33:54;;;;;;;6.40;3.30;;;;;;;16.98;100.00;100378.66;5006233;28;20052;-71
2023/07/23 08:36:40;;;;;;;5.03;3.13;;;;;;;16.87;100.00;100379.00;5007005;28;20042;-71
2023/07/23 08:39:26;;;;;;;8.88;4.32;;;;;;;16.83;100.00;100388.66;5005041;28;20052;-74
2023/07/23 08:42:55;;;;;;;6.85;3.88;;;;;;;16.96;100.00;100383.50;4989500;28;20042;-72
2023/07/23 08:45:40;;;;;;;6.45;4.20;;;;;;;16.81;100.00;100377.78;5001515;28;20512;-71
2023/07/23 08:48:46;;;;;;;5.97;4.50;;;;;;;16.89;100.00;100377.81;5002739;28;20034;-72
2023/07/23 08:51:33;;;;;;;3.92;3.30;;;;;;;16.89;100.00;100371.41;5006922;28;20049;-71
2023/07/23 08:54:19;;;;;;;4.20;3.13;;;;;;;16.88;100.00;100380.75;5010710;28;20081;-70
2023/07/23 08:57:07;;;;;;;5.25;3.80;;;;;;;17.00;100.00;100386.78;4981198;28;20077;-71
2023/07/23 08:59:53;;;;;;;4.32;3.17;;;;;;;16.85;100.00;100378.31;5007879;28;20107;-71
2023/07/23 09:02:41;;;;;;;5.40;3.90;;;;;;;16.93;100.00;100383.00;5004906;28;20046;-71
2023/07/23 09:05:27;;;;;;;5.55;3.20;;;;;;;17.04;100.00;100385.41;5001090;28;20414;-71
2023/07/23 09:08:12;;;;;;;3.45;2.50;;;;;;;16.86;100.00;100385.59;4998133;28;20037;-72
2023/07/23 09:10:58;;;;;;;3.20;2.50;;;;;;;16.95;100.00;100398.34;4995960;28;20121;-72
2023/07/23 09:13:44;;;;;;;5.40;2.53;;;;;;;16.90;100.00;100393.38;5008203;28;20042;-71
2023/07/23 09:16:29;;;;;;;4.43;2.40;;;;;;;16.95;100.00;100392.81;5006591;28;20045;-72
2023/07/23 09:19:24;;;;;;;3.92;2.30;;;;;;;17.06;100.00;100395.22;4991890;28;20061;-71
2023/07/23 09:22:10;;;;;;;2.90;2.28;;;;;;;17.07;100.00;100382.28;4990645;28;20513;-70
2023/07/23 09:25:00;;;;;;;4.75;2.33;;;;;;;17.17;100.00;100379.31;5008142;28;20036;-70
2023/07/23 09:27:46;;;;;;;4.40;2.53;;;;;;;17.11;100.00;100383.63;4959383;28;20045;-72
2023/07/23 09:30:31;;;;;;;3.53;2.42;;;;;;;17.15;100.00;100384.16;4989400;28;20061;-72
2023/07/23 09:33:17;;;;;;;3.05;2.00;;;;;;;17.02;100.00;100399.41;5009966;28;20042;-74
2023/07/23 09:36:05;;;;;;;4.13;2.67;;;;;;;17.08;100.00;100395.06;4993693;28;20042;-70
2023/07/23 09:39:03;;;;;;;4.18;2.67;;;;;;;17.15;100.00;100396.09;4998789;28;20524;-71
2023/07/23 09:41:49;;;;;;;2.95;2.17;;;;;;;17.07;100.00;100396.97;5004094;28;20053;-71
2023/07/23 09:44:38;;;;;;;3.53;2.47;;;;;;;17.03;100.00;100403.88;5003849;28;20033;-71
2023/07/23 09:47:24;;;;;;;4.05;1.67;;;;;;;16.99;100.00;100405.28;5000470;28;20429;-71
2023/07/23 09:50:10;;;;;;;2.85;2.40;;;;;;;16.91;100.00;100402.53;5009929;28;20437;-71
2023/07/23 09:52:56;;;;;;;3.90;2.47;;;;;;;16.94;100.00;100402.19;4996190;28;20050;-72
2023/07/23 09:55:45;;;;;;;3.35;2.17;;;;;;;16.97;100.00;100412.91;5006574;28;20046;-71
2023/07/23 09:58:34;;;;;;;3.22;2.15;;;;;;;16.98;100.00;100405.44;4996189;28;20040;-71
2023/07/23 10:01:20;;;;;;;3.45;2.08;;;;;;;17.14;100.00;100410.09;5003414;28;20104;-71
2023/07/23 10:04:09;;;;;;;2.50;2.10;;;;;;;17.00;100.00;100406.13;5016955;28;20128;-72
2023/07/23 10:06:55;;;;;;;3.00;2.10;;;;;;;17.13;100.00;100417.53;5003133;28;20049;-73
2023/07/23 10:09:41;;;;;;;4.15;2.30;;;;;;;17.11;100.00;100414.06;4991985;28;20074;-73
2023/07/23 10:12:27;;;;;;;6.35;2.90;;;;;;;17.17;100.00;100415.28;5006937;28;20034;-72
2023/07/23 10:15:13;;;;;;;3.22;2.03;;;;;;;17.22;100.00;100415.63;5006752;28;20397;-71
2023/07/23 10:18:01;;;;;;;9.93;2.53;;;;;;;17.15;100.00;100421.00;5004974;28;20469;-71
2023/07/23 10:20:47;;;;;;;4.18;2.65;;;;;;;16.86;100.00;100429.84;5007556;28;20469;-74
2023/07/23 10:23:33;;;;;;;3.83;2.00;;;;;;;16.78;100.00;100436.19;4992509;28;20560;-71
2023/07/23 10:26:24;;;;;;;2.92;1.98;;;;;;;16.79;100.00;100435.16;5003131;28;20034;-71
2023/07/23 10:29:18;;;;;;;4.03;2.15;;;;;;;16.79;100.00;100439.81;5005541;28;20046;-72
2023/07/23 10:32:24;;;;;;;4.07;2.38;;;;;;;16.86;100.00;100439.00;5002724;28;20120;-72
2023/07/23 10:35:10;;;;;;;3.70;2.25;;;;;;;16.91;100.00;100444.00;5002270;28;20504;-72
2023/07/23 10:38:24;;;;;;;5.13;2.20;;;;;;;16.97;100.00;100429.50;5000768;28;20034;-71
2023/07/23 10:41:10;;;;;;;4.93;2.20;;;;;;;17.04;100.00;100441.56;4999397;28;20027;-72
2023/07/23 10:43:56;;;;;;;4.05;2.00;;;;;;;17.10;100.00;100437.22;5003978;28;20045;-71
2023/07/23 10:46:42;;;;;;;6.15;2.30;;;;;;;17.01;100.00;100441.91;4992151;28;20429;-73
2023/07/23 10:49:29;;;;;;;6.85;2.33;;;;;;;16.95;100.00;100434.31;4984086;28;20030;-72
2023/07/23 10:52:17;;;;;;;5.03;2.13;;;;;;;16.90;100.00;100440.38;5009256;28;20409;-72
2023/07/23 10:55:04;;;;;;;4.47;2.10;;;;;;;16.99;100.00;100441.22;5011187;28;20058;-72
2023/07/23 10:57:52;;;;;;;3.30;2.60;;;;;;;17.15;100.00;100428.41;5012393;28;20034;-72
2023/07/23 11:00:54;;;;;;;2.75;2.03;;;;;;;17.15;100.00;100431.19;5007978;28;20042;-72
2023/07/23 11:03:43;;;;;;;4.68;1.85;;;;;;;17.02;100.00;100427.06;4993662;28;20037;-72
2023/07/23 11:06:33;;;;;;;5.15;2.10;;;;;;;17.21;100.00;100431.34;5007546;28;20038;-72
2023/07/23 11:09:27;;;;;;;4.03;2.13;;;;;;;17.13;100.00;100428.59;5008630;28;20085;-72
2023/07/23 11:12:14;;;;;;;4.07;2.35;;;;;;;17.22;100.00;100435.84;5004778;28;20229;-72
2023/07/23 11:15:13;;;;;;;3.15;2.50;;;;;;;17.17;100.00;100437.44;5008603;28;20042;-72
2023/07/23 11:17:59;;;;;;;2.85;2.45;;;;;;;17.11;100.00;100440.88;5007395;28;20041;-72
2023/07/23 11:20:50;;;;;;;3.67;2.40;;;;;;;17.33;100.00;100442.03;5012577;28;20103;-72
2023/07/23 11:23:35;;;;;;;3.88;2.65;;;;;;;17.35;100.00;100432.53;5012055;28;20081;-73
2023/07/23 11:26:21;;;;;;;7.97;2.70;;;;;;;17.42;100.00;100441.00;5000058;28;20515;-73
2023/07/23 11:29:07;;;;;;;6.78;2.63;;;;;;;17.44;100.00;100433.38;5011180;28;21019;-72
2023/07/23 11:31:54;;;;;;;5.95;2.40;;;;;;;17.55;100.00;100433.00;5008642;28;20120;-73
2023/07/23 11:34:40;;;;;;;6.25;2.55;;;;;;;17.59;100.00;100430.72;4995312;28;20448;-73
2023/07/23 11:37:26;;;;;;;4.10;2.90;;;;;;;17.63;100.00;100429.34;5007485;28;20394;-73
2023/07/23 11:40:19;;;;;;;3.78;2.72;;;;;;;17.81;100.00;100421.66;4996311;28;20037;-73
2023/07/23 11:43:08;;;;;;;4.45;2.58;;;;;;;17.96;100.00;100418.16;5009851;28;20036;-72
2023/07/23 11:45:53;;;;;;;3.95;2.30;;;;;;;18.19;100.00;100424.59;5006467;28;20037;-72
2023/07/23 11:48:39;;;;;;;3.53;2.75;;;;;;;18.35;100.00;100406.16;5008568;28;20069;-72
2023/07/23 11:51:26;;;;;;;4.35;2.20;;;;;;;18.56;100.00;100408.25;5009308;28;20069;-72
2023/07/23 11:54:13;;;;;;;4.93;2.50;;;;;;;18.63;100.00;100417.56;4975880;28;20150;-72
2023/07/23 11:56:59;;;;;;;3.38;2.42;;;;;;;18.66;100.00;100413.53;5002401;28;20058;-72
2023/07/23 11:59:44;;;;;;;3.88;2.58;;;;;;;18.52;100.00;100418.84;4997936;28;20895;-72
2023/07/23 12:02:30;;;;;;;3.17;2.53;;;;;;;18.55;100.00;100414.84;5004599;28;20046;-72
2023/07/23 12:05:17;;;;;;;3.63;2.53;;;;;;;18.71;100.00;100422.19;4998321;28;20498;-72
2023/07/23 12:08:02;;;;;;;6.72;3.60;;;;;;;18.59;100.00;100409.81;4997761;28;20030;-72
2023/07/23 12:10:48;;;;;;;4.15;3.08;;;;;;;18.60;100.00;100409.63;5005911;28;20043;-71
2023/07/23 12:13:34;;;;;;;4.85;2.90;;;;;;;18.65;100.00;100409.91;5009987;28;20126;-73
2023/07/23 12:16:38;;;;;;;4.85;2.10;;;;;;;18.80;100.00;100404.41;5009209;28;20034;-72
2023/07/23 12:19:24;;;;;;;5.25;2.50;;;;;;;18.99;100.00;100400.31;5010032;28;20049;-72
2023/07/23 12:22:09;;;;;;;3.38;2.53;;;;;;;19.07;100.00;100402.13;5006467;28;20045;-72
2023/07/23 12:24:55;;;;;;;4.00;2.95;;;;;;;18.97;100.00;100405.19;5005492;28;20046;-73
2023/07/23 12:27:41;;;;;;;5.90;3.75;;;;;;;18.89;100.00;100396.94;4999766;28;20436;-72
2023/07/23 12:30:27;;;;;;;3.92;2.85;;;;;;;19.10;100.00;100404.53;5004588;28;20053;-72
2023/07/23 12:33:12;;;;;;;3.45;3.15;;;;;;;19.05;100.00;100398.69;5003709;28;20554;-72
2023/07/23 12:35:58;;;;;;;5.57;3.10;;;;;;;19.07;100.00;100396.56;5006405;28;20453;-72
2023/07/23 12:38:44;;;;;;;4.90;2.88;;;;;;;19.17;100.00;100394.41;4994933;28;20047;-72
2023/07/23 12:41:29;;;;;;;3.58;3.03;;;;;;;19.19;100.00;100397.00;5006629;28;20527;-73
2023/07/23 12:44:15;;;;;;;3.28;2.97;;;;;;;19.16;100.00;100398.22;4993319;28;20045;-71